Time;durP1;ratioP1;P1;durP2;ratioP2;P2;SDS_P1;SDS_P2;PMS_P1;PMS_P2;Temp;Humidity;BMP_temperature;BMP_pressure;BME280_temperature;BME280_humidity;BME280_pressure;Samples;Min_cycle;Max_cycle;Signal;HPM_P1;HPM_P2
2022/01/09 00:01:28;;;;;;;37.60;19.80;;;;;;;6.42;100.00;100249.97;4977619;28;20242;-83
2022/01/09 00:03:53;;;;;;;41.45;20.80;;;;;;;6.65;100.00;100278.59;4976165;28;20208;-83
2022/01/09 00:06:19;;;;;;;39.17;19.92;;;;;;;6.56;100.00;100257.31;4976221;28;20702;-82
2022/01/09 00:08:44;;;;;;;38.97;20.52;;;;;;;6.74;100.00;100282.81;4979176;28;20185;-82
2022/01/09 00:11:11;;;;;;;33.70;19.10;;;;;;;6.55;100.00;100258.06;4978166;28;20229;-82
2022/01/09 00:13:37;;;;;;;41.97;21.17;;;;;;;6.78;100.00;100292.56;4974421;28;20202;-84
2022/01/09 00:16:02;;;;;;;45.05;20.75;;;;;;;6.77;100.00;100291.66;4974349;28;20210;-83
2022/01/09 00:18:28;;;;;;;49.75;22.98;;;;;;;6.52;100.00;100236.50;4974444;28;20623;-83
2022/01/09 00:20:54;;;;;;;49.08;26.73;;;;;;;6.76;100.00;100287.34;4974664;28;20215;-83
2022/01/09 00:23:20;;;;;;;54.85;25.70;;;;;;;6.34;100.00;100210.13;4974464;28;20583;-82
2022/01/09 00:25:45;;;;;;;59.72;27.92;;;;;;;6.79;100.00;100286.72;4974087;28;20576;-84
2022/01/09 00:28:11;;;;;;;59.85;27.10;;;;;;;6.35;100.00;100215.34;4974799;28;20178;-83
2022/01/09 00:30:36;;;;;;;63.08;30.33;;;;;;;6.78;100.00;100290.91;4974271;28;20612;-83
2022/01/09 00:33:03;;;;;;;67.53;28.45;;;;;;;6.64;100.00;100265.75;4974389;28;20261;-85
2022/01/09 00:35:29;;;;;;;76.97;33.50;;;;;;;6.75;100.00;100279.53;4974200;28;20178;-84
2022/01/09 00:37:54;;;;;;;64.13;30.40;;;;;;;6.74;100.00;100287.91;4956943;28;20568;-83
2022/01/09 00:40:20;;;;;;;64.53;29.75;;;;;;;6.71;100.00;100281.75;4974332;28;20174;-83
2022/01/09 00:42:45;;;;;;;62.85;28.88;;;;;;;6.42;100.00;100229.63;4974485;28;20204;-83
2022/01/09 00:45:12;;;;;;;58.92;29.40;;;;;;;6.72;100.00;100275.91;4974318;28;20210;-83
2022/01/09 00:47:38;;;;;;;55.47;28.25;;;;;;;6.71;100.00;100280.88;4974287;28;20256;-82
2022/01/09 00:50:04;;;;;;;59.38;28.08;;;;;;;6.08;100.00;100172.81;4973732;28;20206;-82
2022/01/09 00:52:30;;;;;;;53.38;27.25;;;;;;;6.66;100.00;100270.22;4973888;28;20181;-83
2022/01/09 00:54:55;;;;;;;61.30;27.80;;;;;;;6.65;100.00;100258.25;4973799;28;20182;-83
2022/01/09 00:57:21;;;;;;;63.13;29.25;;;;;;;6.19;100.00;100172.22;4974708;28;20186;-83
2022/01/09 00:59:46;;;;;;;66.82;28.67;;;;;;;6.38;100.00;100210.56;4977673;28;20642;-83
2022/01/09 01:02:12;;;;;;;61.67;29.10;;;;;;;6.27;100.00;100195.00;4974454;28;20170;-83
2022/01/09 01:04:39;;;;;;;62.70;29.08;;;;;;;6.49;100.00;100232.00;4983233;28;20218;-84
2022/01/09 01:07:05;;;;;;;67.20;30.33;;;;;;;5.86;100.00;100125.59;4998532;28;20192;-82
2022/01/09 01:09:31;;;;;;;54.97;26.73;;;;;;;6.34;100.00;100217.75;4998826;28;20174;-83
2022/01/09 01:12:00;;;;;;;57.33;26.10;;;;;;;6.24;100.00;100172.69;4999192;28;20174;-82
2022/01/09 01:14:27;;;;;;;51.47;25.55;;;;;;;6.62;100.00;100236.69;4998753;28;20186;-81
2022/01/09 01:16:54;;;;;;;51.40;24.73;;;;;;;6.31;100.00;100187.81;4998046;28;20166;-84
2022/01/09 01:19:20;;;;;;;46.65;23.48;;;;;;;6.42;100.00;100225.41;4999128;28;20154;-82
2022/01/09 01:21:45;;;;;;;44.45;21.55;;;;;;;6.50;100.00;100232.91;4998911;28;20209;-82
2022/01/09 01:24:11;;;;;;;42.72;21.35;;;;;;;6.54;100.00;100233.38;4992799;28;20562;-82
2022/01/09 01:26:36;;;;;;;53.58;22.83;;;;;;;6.55;100.00;100227.53;4986468;28;20177;-82
2022/01/09 01:29:02;;;;;;;43.75;21.58;;;;;;;6.35;100.00;100189.91;4996404;28;20166;-83
2022/01/09 01:31:28;;;;;;;51.10;22.88;;;;;;;5.77;100.00;100089.97;4998887;28;20165;-81
2022/01/09 01:33:53;;;;;;;42.83;20.20;;;;;;;6.53;100.00;100225.56;4999144;28;20158;-81
2022/01/09 01:36:20;;;;;;;44.28;21.40;;;;;;;6.43;100.00;100201.75;4998723;28;20196;-82
2022/01/09 01:38:45;;;;;;;47.25;21.67;;;;;;;6.31;100.00;100182.72;4998971;28;20202;-82
2022/01/09 01:41:11;;;;;;;49.03;22.10;;;;;;;6.11;100.00;100146.78;4998975;28;20162;-82
2022/01/09 01:43:36;;;;;;;46.13;23.03;;;;;;;6.34;100.00;100166.88;4998691;28;20192;-83
2022/01/09 01:46:02;;;;;;;45.15;21.52;;;;;;;6.41;100.00;100176.91;4994311;28;20225;-82
2022/01/09 01:48:29;;;;;;;47.22;21.35;;;;;;;6.10;100.00;100112.78;4988473;28;20174;-82
2022/01/09 01:50:55;;;;;;;47.33;21.38;;;;;;;6.56;100.00;100195.34;4982667;28;20373;-83
2022/01/09 01:53:21;;;;;;;45.05;21.38;;;;;;;6.51;100.00;100193.97;4976460;28;20361;-84
2022/01/09 01:55:53;;;;;;;42.40;19.45;;;;;;;6.12;100.00;100120.59;4976350;28;20177;-83
2022/01/09 01:58:19;;;;;;;50.65;22.70;;;;;;;6.50;100.00;100182.00;4975886;28;20159;-81
2022/01/09 02:00:45;;;;;;;51.83;22.33;;;;;;;6.48;100.00;100174.22;4975716;28;20650;-83
2022/01/09 02:03:10;;;;;;;45.00;21.73;;;;;;;5.79;100.00;100048.72;4974290;28;20665;-83
2022/01/09 02:05:36;;;;;;;52.58;22.00;;;;;;;6.50;100.00;100157.44;4975924;28;20257;-81
2022/01/09 02:08:03;;;;;;;50.22;21.73;;;;;;;6.53;100.00;100151.75;4978247;28;20255;-82
2022/01/09 02:10:30;;;;;;;49.50;20.90;;;;;;;6.55;100.00;100157.91;4979462;28;20210;-81
2022/01/09 02:12:57;;;;;;;49.90;20.98;;;;;;;6.59;100.00;100147.28;4995500;28;20624;-82
2022/01/09 02:15:38;;;;;;;55.05;23.70;;;;;;;6.61;100.00;100130.53;4980175;28;20278;-82
2022/01/09 02:18:07;;;;;;;45.90;21.05;;;;;;;6.53;100.00;100116.13;4979385;28;20163;-82
2022/01/09 02:20:33;;;;;;;49.53;21.10;;;;;;;6.64;100.00;100129.16;4980493;28;20174;-81
2022/01/09 02:22:58;;;;;;;42.70;19.10;;;;;;;6.62;100.00;100133.19;4980178;28;20174;-81
2022/01/09 02:25:26;;;;;;;40.00;18.40;;;;;;;6.08;100.00;100037.09;4980254;28;20205;-81
2022/01/09 02:27:52;;;;;;;43.55;20.17;;;;;;;6.37;100.00;100083.19;4982046;28;20182;-81
2022/01/09 02:30:17;;;;;;;41.38;19.77;;;;;;;6.47;100.00;100090.97;4979216;28;20178;-81
2022/01/09 02:32:43;;;;;;;43.83;19.73;;;;;;;6.64;100.00;100113.00;4975865;28;20175;-83
2022/01/09 02:35:09;;;;;;;45.45;21.10;;;;;;;6.55;100.00;100105.34;4976012;28;20526;-83
2022/01/09 02:37:34;;;;;;;49.60;20.95;;;;;;;6.47;100.00;100086.78;4975948;28;20183;-83
2022/01/09 02:40:00;;;;;;;47.53;20.90;;;;;;;6.25;100.00;100037.09;4975581;28;20261;-84
2022/01/09 02:42:29;;;;;;;41.92;19.90;;;;;;;6.52;100.00;100079.59;4975898;28;20174;-83
2022/01/09 02:44:55;;;;;;;43.05;19.05;;;;;;;6.67;100.00;100109.09;4975548;28;20202;-83
2022/01/09 02:47:22;;;;;;;39.67;18.65;;;;;;;6.68;100.00;100105.78;4975595;28;20216;-83
2022/01/09 02:49:51;;;;;;;37.00;18.92;;;;;;;6.63;100.00;100094.25;4975706;28;20178;-82
2022/01/09 02:52:35;;;;;;;38.67;18.67;;;;;;;6.26;100.00;100023.63;4976275;28;20569;-83
2022/01/09 02:55:14;;;;;;;39.25;17.98;;;;;;;6.72;100.00;100097.69;4975821;28;20162;-83
2022/01/09 02:57:41;;;;;;;34.60;17.00;;;;;;;6.51;100.00;100069.25;4976262;28;20163;-84
2022/01/09 03:00:13;;;;;;;37.17;18.00;;;;;;;6.71;100.00;100089.91;4975669;28;20229;-84
2022/01/09 03:02:39;;;;;;;33.08;16.50;;;;;;;6.58;100.00;100077.66;4975277;28;20184;-83
2022/01/09 03:05:05;;;;;;;39.22;19.92;;;;;;;6.42;100.00;100048.94;4975199;28;20284;-82
2022/01/09 03:07:30;;;;;;;42.92;21.23;;;;;;;6.59;100.00;100092.16;4975314;28;20189;-84
2022/01/09 03:09:56;;;;;;;39.83;19.90;;;;;;;6.27;100.00;100035.63;4975109;28;20226;-83
2022/01/09 03:12:22;;;;;;;37.43;18.40;;;;;;;6.54;100.00;100067.00;4975421;28;20626;-83
2022/01/09 03:14:48;;;;;;;35.83;17.77;;;;;;;6.65;100.00;100086.78;4975310;28;20217;-81
2022/01/09 03:17:13;;;;;;;38.60;18.33;;;;;;;6.58;100.00;100087.84;4975334;28;20178;-83
2022/01/09 03:19:39;;;;;;;36.28;17.35;;;;;;;6.34;100.00;100057.44;4975145;28;20257;-83
2022/01/09 03:22:05;;;;;;;43.38;20.20;;;;;;;6.09;100.00;100016.00;4975406;28;20182;-83
2022/01/09 03:24:30;;;;;;;41.42;18.90;;;;;;;6.13;100.00;100020.63;4975372;28;20206;-84
2022/01/09 03:26:56;;;;;;;39.80;19.90;;;;;;;6.46;100.00;100063.75;4975026;28;20205;-84
2022/01/09 03:29:21;;;;;;;47.20;20.60;;;;;;;6.27;100.00;100035.63;4975269;28;20253;-84
2022/01/09 03:31:47;;;;;;;43.78;19.88;;;;;;;6.53;100.00;100072.88;4975727;28;20608;-85
2022/01/09 03:34:12;;;;;;;50.10;20.63;;;;;;;6.58;100.00;100074.22;4975791;28;20186;-83
2022/01/09 03:36:38;;;;;;;40.45;18.27;;;;;;;6.40;100.00;100073.31;4975206;28;20642;-84
2022/01/09 03:39:03;;;;;;;36.13;17.07;;;;;;;6.46;100.00;100069.72;4974110;28;20739;-83
2022/01/09 03:41:29;;;;;;;38.10;17.90;;;;;;;6.38;100.00;100074.81;4975114;28;20181;-82
2022/01/09 03:43:54;;;;;;;36.75;17.52;;;;;;;6.35;100.00;100085.56;4975119;28;20186;-83
2022/01/09 03:46:20;;;;;;;34.57;15.77;;;;;;;5.81;100.00;99994.56;4975360;28;20189;-83
2022/01/09 03:48:45;;;;;;;37.20;19.48;;;;;;;5.99;100.00;100029.47;4975545;28;20748;-84
2022/01/09 03:51:11;;;;;;;37.00;16.75;;;;;;;6.23;100.00;100069.09;4957470;28;20201;-83
2022/01/09 03:53:37;;;;;;;33.28;16.05;;;;;;;6.25;100.00;100077.81;4974972;28;20174;-82
2022/01/09 03:56:03;;;;;;;36.03;17.77;;;;;;;6.01;100.00;100038.13;4975442;28;20193;-83
2022/01/09 03:58:29;;;;;;;31.43;16.37;;;;;;;6.21;100.00;100068.97;4990316;28;20257;-83
2022/01/09 04:00:55;;;;;;;33.75;16.35;;;;;;;5.65;100.00;99976.91;4975274;28;20260;-82
2022/01/09 04:03:20;;;;;;;36.15;17.20;;;;;;;6.19;100.00;100075.53;4974894;28;20213;-82
2022/01/09 04:05:46;;;;;;;36.05;16.25;;;;;;;6.21;100.00;100083.34;4974868;28;20623;-83
2022/01/09 04:08:12;;;;;;;36.85;16.92;;;;;;;6.02;100.00;100047.56;4975121;28;20186;-83
2022/01/09 04:10:41;;;;;;;36.53;18.33;;;;;;;5.99;100.00;100049.81;4975063;28;20277;-82
2022/01/09 04:13:08;;;;;;;37.83;17.48;;;;;;;6.11;100.00;100076.47;4975645;28;20222;-83
2022/01/09 04:15:34;;;;;;;43.08;18.40;;;;;;;5.88;100.00;100033.44;4975356;28;20174;-84
2022/01/09 04:18:01;;;;;;;38.53;18.83;;;;;;;6.17;100.00;100073.63;4974765;28;20178;-83
2022/01/09 04:20:29;;;;;;;37.70;18.80;;;;;;;6.20;100.00;100076.47;4974663;28;20466;-84
2022/01/09 04:22:56;;;;;;;43.80;19.38;;;;;;;6.14;100.00;100058.94;4975121;28;20182;-83
2022/01/09 04:25:22;;;;;;;39.63;18.70;;;;;;;5.10;100.00;99883.41;4974499;28;20198;-83
2022/01/09 04:27:49;;;;;;;33.50;16.42;;;;;;;6.13;100.00;100080.03;4974406;28;20201;-84
2022/01/09 04:30:16;;;;;;;38.35;17.42;;;;;;;6.02;100.00;100065.38;4975587;28;20272;-83
2022/01/09 04:32:41;;;;;;;35.63;16.70;;;;;;;6.07;100.00;100089.59;4974740;28;20179;-82
2022/01/09 04:35:07;;;;;;;34.30;16.13;;;;;;;5.84;100.00;100060.97;4973850;28;20180;-82
2022/01/09 04:37:34;;;;;;;36.17;17.80;;;;;;;5.94;100.00;100087.47;4975058;28;20678;-82
2022/01/09 04:40:00;;;;;;;38.47;17.65;;;;;;;5.93;100.00;100087.34;4974723;28;20692;-83
2022/01/09 04:42:34;;;;;;;39.17;17.27;;;;;;;5.29;100.00;99975.03;4975065;28;20173;-84
2022/01/09 04:44:59;;;;;;;35.00;16.40;;;;;;;5.76;100.00;100078.91;4974066;28;20224;-84
2022/01/09 04:47:25;;;;;;;34.58;17.33;;;;;;;5.76;100.00;100085.59;4973651;28;20206;-84
2022/01/09 04:49:51;;;;;;;37.00;17.25;;;;;;;5.51;100.00;100045.06;4974059;28;20677;-82
2022/01/09 04:52:20;;;;;;;38.80;17.75;;;;;;;5.68;100.00;100094.13;4974148;28;20174;-84
2022/01/09 04:54:47;;;;;;;35.17;18.30;;;;;;;5.65;100.00;100103.97;4975275;28;20185;-83
2022/01/09 04:57:14;;;;;;;35.10;17.47;;;;;;;5.67;100.00;100098.31;4990137;28;20170;-84
2022/01/09 04:59:40;;;;;;;30.25;13.68;;;;;;;5.62;100.00;100101.13;4979999;28;20182;-81
2022/01/09 05:02:06;;;;;;;26.48;13.38;;;;;;;5.62;100.00;100102.03;4962594;28;20179;-82
2022/01/09 05:04:31;;;;;;;31.75;15.02;;;;;;;5.57;100.00;100080.31;4975498;28;20556;-82
2022/01/09 05:06:57;;;;;;;30.65;14.90;;;;;;;5.33;100.00;100025.41;4974636;28;20179;-81
2022/01/09 05:09:22;;;;;;;32.70;14.87;;;;;;;5.51;100.00;100067.00;4976884;28;20177;-82
2022/01/09 05:11:48;;;;;;;30.80;15.30;;;;;;;5.73;100.00;100109.09;4978358;28;20221;-82
2022/01/09 05:14:13;;;;;;;31.60;15.77;;;;;;;5.39;100.00;100026.03;4979361;28;20170;-82
2022/01/09 05:16:43;;;;;;;33.83;16.03;;;;;;;5.66;100.00;100077.81;4982352;28;20185;-81
2022/01/09 05:19:17;;;;;;;33.25;15.52;;;;;;;5.72;100.00;100084.41;4980005;28;20662;-80
2022/01/09 05:21:44;;;;;;;32.83;15.48;;;;;;;5.87;100.00;100101.94;4974890;28;20163;-77
2022/01/09 05:24:10;;;;;;;28.50;14.17;;;;;;;5.80;100.00;100103.00;4974161;28;20205;-75
2022/01/09 05:26:36;;;;;;;33.00;14.83;;;;;;;5.56;100.00;100084.50;4982595;28;20186;-79
2022/01/09 05:29:01;;;;;;;30.97;14.23;;;;;;;5.48;100.00;100080.31;4978190;28;20252;-82
2022/01/09 05:31:27;;;;;;;29.30;15.27;;;;;;;5.67;100.00;100108.47;4977209;28;20174;-82
2022/01/09 05:33:53;;;;;;;37.40;16.53;;;;;;;5.16;100.00;100018.59;4961784;28;20178;-84
2022/01/09 05:36:18;;;;;;;37.07;16.03;;;;;;;5.48;100.00;100076.84;4978936;28;20178;-80
2022/01/09 05:38:44;;;;;;;32.20;14.43;;;;;;;5.62;100.00;100102.03;4962722;28;20275;-82
2022/01/09 05:41:10;;;;;;;29.80;14.50;;;;;;;4.86;100.00;99963.09;4979867;28;20186;-80
2022/01/09 05:43:36;;;;;;;33.73;15.27;;;;;;;4.65;100.00;99921.19;4979697;28;20185;-82
2022/01/09 05:46:03;;;;;;;33.07;15.33;;;;;;;5.64;100.00;100097.06;4982444;28;20249;-80
2022/01/09 05:48:29;;;;;;;39.27;17.07;;;;;;;5.45;100.00;100052.06;4985567;28;20188;-82
2022/01/09 05:50:56;;;;;;;36.88;15.95;;;;;;;5.18;100.00;99994.28;4981694;28;20178;-81
2022/01/09 05:53:21;;;;;;;33.73;16.33;;;;;;;5.00;100.00;99957.75;4982217;28;20653;-82
2022/01/09 05:55:47;;;;;;;32.75;14.88;;;;;;;5.57;100.00;100052.38;4982423;28;20185;-82
2022/01/09 05:58:13;;;;;;;29.70;14.50;;;;;;;5.08;100.00;99969.59;4964670;28;20245;-81
2022/01/09 06:00:39;;;;;;;32.43;15.13;;;;;;;5.68;100.00;100069.59;4983298;28;20170;-83
2022/01/09 06:03:06;;;;;;;34.03;15.10;;;;;;;5.48;100.00;100028.56;4986063;28;20178;-82
2022/01/09 06:05:31;;;;;;;33.90;15.82;;;;;;;5.82;100.00;100076.06;4987874;28;20528;-83
2022/01/09 06:07:57;;;;;;;36.28;15.88;;;;;;;5.84;100.00;100083.84;4984640;28;20202;-84
2022/01/09 06:10:22;;;;;;;31.05;14.77;;;;;;;5.79;100.00;100084.31;4971766;28;20225;-83
2022/01/09 06:12:48;;;;;;;38.50;18.90;;;;;;;5.65;100.00;100059.13;4970765;28;20674;-82
2022/01/09 06:15:14;;;;;;;49.23;23.77;;;;;;;5.38;100.00;100015.69;4986393;28;20174;-82
2022/01/09 06:17:42;;;;;;;30.35;14.45;;;;;;;5.79;100.00;100091.00;4984240;28;20175;-80
2022/01/09 06:20:11;;;;;;;33.70;15.50;;;;;;;5.79;100.00;100094.47;4982757;28;20170;-80
2022/01/09 06:22:37;;;;;;;29.50;14.47;;;;;;;5.50;100.00;100042.34;4977530;28;20177;-82
2022/01/09 06:25:04;;;;;;;30.60;15.47;;;;;;;5.42;100.00;100031.41;4978996;28;20203;-85
2022/01/09 06:27:30;;;;;;;46.88;23.75;;;;;;;5.84;100.00;100091.47;4978549;28;20197;-81
2022/01/09 06:29:55;;;;;;;57.17;29.33;;;;;;;5.86;100.00;100095.09;4978072;28;20174;-83
2022/01/09 06:32:21;;;;;;;44.03;22.83;;;;;;;5.88;100.00;100089.38;4977629;28;20323;-80
2022/01/09 06:34:47;;;;;;;31.20;16.15;;;;;;;5.89;100.00;100105.56;4992849;28;20189;-82
2022/01/09 06:37:13;;;;;;;29.30;15.33;;;;;;;5.85;100.00;100089.06;4977874;28;20178;-81
2022/01/09 06:39:40;;;;;;;29.37;14.83;;;;;;;5.50;100.00;100029.63;4992203;28;20174;-81
2022/01/09 06:42:06;;;;;;;24.93;13.23;;;;;;;5.85;100.00;100090.72;4977235;28;20173;-82
2022/01/09 06:44:31;;;;;;;27.83;14.40;;;;;;;5.77;100.00;100075.59;4977002;28;20293;-80
2022/01/09 06:46:57;;;;;;;31.87;16.23;;;;;;;5.62;100.00;100053.75;4979920;28;20212;-81
2022/01/09 06:49:23;;;;;;;33.40;16.70;;;;;;;5.58;100.00;100041.47;4992833;28;20202;-82
2022/01/09 06:51:48;;;;;;;31.00;14.83;;;;;;;5.81;100.00;100094.59;4977461;28;20209;-81
2022/01/09 06:54:14;;;;;;;27.30;13.47;;;;;;;5.82;100.00;100086.22;4981849;28;20175;-81
2022/01/09 06:56:41;;;;;;;37.63;18.30;;;;;;;5.85;100.00;100088.19;4982312;28;20178;-84
2022/01/09 06:59:07;;;;;;;40.20;21.80;;;;;;;5.87;100.00;100087.59;4980030;28;20178;-85
2022/01/09 07:01:32;;;;;;;41.53;20.38;;;;;;;5.47;100.00;100006.47;4978515;28;20722;-85
2022/01/09 07:03:58;;;;;;;52.13;26.40;;;;;;;5.73;100.00;100052.25;4977864;28;20182;-85
2022/01/09 07:06:23;;;;;;;60.97;31.20;;;;;;;5.74;100.00;100046.44;4978698;28;20209;-86
2022/01/09 07:08:49;;;;;;;40.77;19.60;;;;;;;5.87;100.00;100071.44;4978913;28;20322;-85
2022/01/09 07:11:16;;;;;;;39.90;20.67;;;;;;;5.89;100.00;100075.03;4963160;28;20254;-87
2022/01/09 07:13:42;;;;;;;42.27;21.27;;;;;;;5.86;100.00;100080.72;4978959;28;20181;-86
2022/01/09 07:16:07;;;;;;;46.13;22.60;;;;;;;5.80;100.00;100077.56;4979982;28;20174;-84
2022/01/09 07:18:33;;;;;;;42.03;20.87;;;;;;;5.85;100.00;100076.34;4976990;28;20212;-84
2022/01/09 07:20:58;;;;;;;42.10;19.40;;;;;;;5.17;100.00;99956.00;4975900;28;20228;-83
2022/01/09 07:23:24;;;;;;;45.80;19.67;;;;;;;5.20;100.00;99974.09;4976728;28;20653;-82
2022/01/09 07:25:49;;;;;;;69.67;31.00;;;;;;;5.84;100.00;100079.66;4975580;28;20203;-81
2022/01/09 07:28:15;;;;;;;40.83;19.37;;;;;;;5.49;100.00;100016.03;4959377;28;20232;-86
2022/01/09 07:30:41;;;;;;;36.40;18.33;;;;;;;5.44;100.00;100031.56;4976295;28;20182;-82
2022/01/09 07:33:06;;;;;;;36.97;18.23;;;;;;;5.44;100.00;100021.41;4975283;28;20182;-83
2022/01/09 07:35:32;;;;;;;45.43;22.27;;;;;;;5.69;100.00;100061.22;4975808;28;20182;-80
2022/01/09 07:37:58;;;;;;;50.33;24.58;;;;;;;5.46;100.00;100000.47;4975511;28;20632;-78
2022/01/09 07:40:24;;;;;;;44.40;23.00;;;;;;;5.85;100.00;100050.03;4975918;28;20650;-81
2022/01/09 07:42:49;;;;;;;43.27;20.87;;;;;;;6.03;100.00;100053.56;4958512;28;20216;-82
2022/01/09 07:45:17;;;;;;;79.80;39.70;;;;;;;5.27;100.00;99901.22;4975226;28;20399;-83
2022/01/09 07:47:42;;;;;;;40.77;20.03;;;;;;;6.24;100.00;100058.22;4975201;28;20671;-79
2022/01/09 07:50:10;;;;;;;35.53;18.13;;;;;;;6.31;100.00;100059.69;4975244;28;20249;-82
2022/01/09 07:52:36;;;;;;;29.27;16.02;;;;;;;6.21;99.76;100019.75;4957607;28;20185;-80
2022/01/09 07:55:04;;;;;;;37.78;20.30;;;;;;;6.00;98.76;99977.84;4975298;28;20740;-81
2022/01/09 07:57:29;;;;;;;31.48;16.33;;;;;;;6.44;100.00;100048.31;4957885;28;20197;-79
2022/01/09 07:59:56;;;;;;;40.03;20.77;;;;;;;6.35;97.73;100016.88;4975285;28;20177;-80
2022/01/09 08:02:25;;;;;;;34.73;18.53;;;;;;;6.45;98.38;100013.59;4975227;28;20184;-79
2022/01/09 08:04:50;;;;;;;35.43;17.23;;;;;;;6.59;96.43;100036.16;4989757;28;20214;-81
2022/01/09 08:07:16;;;;;;;28.50;15.35;;;;;;;6.66;98.38;100036.00;4975033;28;20714;-80
2022/01/09 08:09:44;;;;;;;26.88;15.32;;;;;;;6.59;96.97;99986.91;4974258;28;20178;-76
2022/01/09 08:12:11;;;;;;;29.08;17.17;;;;;;;6.88;94.46;100012.59;4974778;28;20169;-82
2022/01/09 08:14:38;;;;;;;30.73;17.83;;;;;;;6.76;94.22;99985.97;4974759;28;20178;-81
2022/01/09 08:17:04;;;;;;;23.37;14.03;;;;;;;6.81;94.07;99994.94;4975035;28;20182;-79
2022/01/09 08:19:31;;;;;;;36.72;22.83;;;;;;;7.04;93.28;100013.31;4974515;28;20253;-80
2022/01/09 08:21:57;;;;;;;49.73;27.63;;;;;;;6.65;92.88;99934.03;4974722;28;20170;-81
2022/01/09 08:24:23;;;;;;;31.60;20.40;;;;;;;7.11;92.78;99994.41;4974722;28;20194;-86
2022/01/09 08:26:48;;;;;;;32.10;17.98;;;;;;;7.24;92.81;100014.28;4958617;28;20189;-83
2022/01/09 08:29:15;;;;;;;28.77;16.83;;;;;;;7.28;92.45;100012.13;4963501;28;20269;-84
2022/01/09 08:31:41;;;;;;;30.38;17.35;;;;;;;6.86;92.68;99945.34;4979481;28;20228;-82
2022/01/09 08:34:07;;;;;;;28.13;16.98;;;;;;;7.21;91.48;100006.34;4974691;28;20261;-80
2022/01/09 08:36:33;;;;;;;32.95;16.92;;;;;;;6.39;93.46;99893.41;4988946;28;20575;-79
2022/01/09 08:38:58;;;;;;;28.73;18.33;;;;;;;7.01;94.43;99979.91;4974286;28;20171;-79
2022/01/09 08:41:24;;;;;;;36.33;19.98;;;;;;;7.24;93.68;100010.06;4973905;28;20348;-79
2022/01/09 08:43:50;;;;;;;27.83;16.33;;;;;;;7.18;93.04;100029.88;4974031;28;20633;-79
2022/01/09 08:46:15;;;;;;;30.20;16.90;;;;;;;7.13;93.92;100020.88;4973633;28;20201;-79
2022/01/09 08:48:41;;;;;;;37.67;19.83;;;;;;;6.69;95.47;99962.47;4973582;28;20569;-80
2022/01/09 08:51:08;;;;;;;29.17;18.13;;;;;;;7.06;96.43;100024.50;4973736;28;20309;-77
2022/01/09 08:53:35;;;;;;;28.45;16.35;;;;;;;7.07;97.06;100018.69;4973237;28;20178;-78
2022/01/09 08:56:05;;;;;;;23.23;14.48;;;;;;;6.92;97.15;99987.56;4973493;28;20265;-77
2022/01/09 08:58:32;;;;;;;24.10;13.50;;;;;;;6.79;96.02;99979.53;4973980;28;20209;-76
2022/01/09 09:00:58;;;;;;;27.05;15.63;;;;;;;6.93;95.87;99999.53;4973024;28;20185;-80
2022/01/09 09:03:24;;;;;;;28.02;15.35;;;;;;;6.44;96.17;99912.53;4987962;28;20180;-78
2022/01/09 09:05:49;;;;;;;25.95;15.55;;;;;;;6.97;96.29;100007.47;4973451;28;20205;-78
2022/01/09 09:08:15;;;;;;;27.25;14.40;;;;;;;6.80;95.31;99976.22;4973948;28;20213;-79
2022/01/09 09:10:41;;;;;;;32.15;15.90;;;;;;;6.85;95.56;100009.75;4973208;28;20253;-80
2022/01/09 09:13:06;;;;;;;32.08;17.25;;;;;;;6.75;95.56;99985.06;4976595;28;20197;-80
2022/01/09 09:15:32;;;;;;;35.33;19.23;;;;;;;6.93;97.29;100009.72;4990888;28;20246;-77
2022/01/09 09:17:58;;;;;;;33.88;18.80;;;;;;;6.97;98.49;100005.81;4978250;28;20201;-79
2022/01/09 09:20:24;;;;;;;36.40;20.48;;;;;;;6.48;97.93;99919.75;4996815;28;20202;-77
2022/01/09 09:22:50;;;;;;;30.02;17.08;;;;;;;6.78;97.06;99964.09;4966106;28;20161;-80
2022/01/09 09:25:17;;;;;;;25.58;16.45;;;;;;;6.93;96.55;99968.97;4980504;28;20200;-82
2022/01/09 09:27:43;;;;;;;30.15;16.40;;;;;;;7.01;96.75;99981.53;4998849;28;20159;-79
2022/01/09 09:30:10;;;;;;;29.37;14.93;;;;;;;7.06;95.73;99996.50;4998521;28;20177;-80
2022/01/09 09:32:37;;;;;;;27.55;15.32;;;;;;;6.83;95.64;99958.69;4997645;28;20189;-81
2022/01/09 09:35:05;;;;;;;27.70;15.57;;;;;;;7.00;94.62;99984.84;4998654;28;20221;-79
2022/01/09 09:37:30;;;;;;;25.33;14.65;;;;;;;6.78;95.03;99942.06;4995813;28;20165;-83
2022/01/09 09:39:57;;;;;;;32.15;17.20;;;;;;;6.97;95.07;99970.16;4995672;28;20186;-80
2022/01/09 09:42:23;;;;;;;27.88;16.20;;;;;;;7.02;95.30;99966.41;4997128;28;20165;-80
2022/01/09 09:44:48;;;;;;;34.78;19.65;;;;;;;7.01;95.87;99950.97;4998073;28;20204;-80
2022/01/09 09:47:18;;;;;;;31.50;17.45;;;;;;;6.88;95.13;99933.66;4981961;28;20170;-81
2022/01/09 09:49:46;;;;;;;28.30;16.58;;;;;;;7.09;94.45;99958.56;4998692;28;20231;-81
2022/01/09 09:52:15;;;;;;;30.75;16.50;;;;;;;6.52;94.70;99862.38;4998909;28;20185;-80
2022/01/09 09:54:41;;;;;;;25.20;13.82;;;;;;;7.03;94.12;99957.09;4998939;28;20184;-82
2022/01/09 09:57:07;;;;;;;30.15;15.77;;;;;;;6.98;93.42;99956.69;4988939;28;20209;-81
2022/01/09 09:59:37;;;;;;;23.17;12.55;;;;;;;6.90;94.49;99953.41;4987666;28;20181;-82
2022/01/09 10:02:16;;;;;;;26.33;14.57;;;;;;;6.87;95.95;99952.22;4981562;28;20255;-81
2022/01/09 10:05:05;;;;;;;26.70;14.30;;;;;;;6.85;96.94;99956.28;4976863;28;20197;-80
2022/01/09 10:07:31;;;;;;;24.20;14.25;;;;;;;6.86;96.52;99951.34;4974709;28;20575;-80
2022/01/09 10:10:10;;;;;;;24.88;12.60;;;;;;;6.74;95.56;99929.81;4973441;28;20229;-80
2022/01/09 10:12:36;;;;;;;25.15;13.23;;;;;;;6.85;96.07;99941.00;4973625;28;20559;-79
2022/01/09 10:15:11;;;;;;;25.38;14.63;;;;;;;6.87;95.56;99926.78;4975840;28;20182;-81
2022/01/09 10:17:50;;;;;;;30.00;16.52;;;;;;;6.99;95.65;99937.22;4977299;28;20196;-82
2022/01/09 10:20:24;;;;;;;19.55;11.38;;;;;;;6.97;93.82;99931.94;4979377;28;20182;-83
2022/01/09 10:22:52;;;;;;;21.10;12.48;;;;;;;6.88;94.37;99916.72;4978687;28;20217;-82
2022/01/09 10:25:30;;;;;;;23.67;13.05;;;;;;;6.86;95.56;99930.09;4974860;28;20198;-80
2022/01/09 10:28:21;;;;;;;21.50;13.70;;;;;;;6.90;95.65;99932.16;4978352;28;20720;-82
2022/01/09 10:30:48;;;;;;;24.30;13.60;;;;;;;6.88;96.83;99929.44;4978806;28;20171;-80
2022/01/09 10:33:16;;;;;;;25.77;13.10;;;;;;;6.92;96.91;99928.09;4979622;28;20261;-79
2022/01/09 10:35:44;;;;;;;22.83;13.10;;;;;;;6.97;99.00;99929.41;4978661;28;20565;-81
2022/01/09 10:38:12;;;;;;;29.73;15.40;;;;;;;7.09;96.45;99917.81;4973131;28;20174;-80
2022/01/09 10:40:38;;;;;;;20.48;12.85;;;;;;;6.84;95.22;99881.53;4973280;28;20178;-80
2022/01/09 10:43:20;;;;;;;21.38;12.95;;;;;;;6.98;95.00;99904.84;4973253;28;20182;-81
2022/01/09 10:46:01;;;;;;;25.17;13.32;;;;;;;7.12;95.18;99933.38;4973155;28;20721;-80
2022/01/09 10:48:32;;;;;;;21.33;12.85;;;;;;;7.17;96.09;99929.63;4990496;28;20174;-81
2022/01/09 10:50:59;;;;;;;17.25;10.48;;;;;;;7.07;95.20;99904.06;4991800;28;20178;-81
2022/01/09 10:53:30;;;;;;;18.88;12.73;;;;;;;7.30;93.74;99923.09;4976558;28;20247;-81
2022/01/09 10:56:20;;;;;;;24.38;13.75;;;;;;;7.31;91.83;99922.34;4977682;28;20607;-80
2022/01/09 10:58:48;;;;;;;23.33;12.57;;;;;;;7.32;91.40;99929.22;4977056;28;20182;-81
2022/01/09 11:01:20;;;;;;;15.35;10.40;;;;;;;7.21;91.53;99924.81;4977134;28;20186;-82
2022/01/09 11:03:50;;;;;;;18.30;11.45;;;;;;;7.19;92.07;99927.19;4976894;28;20178;-82
2022/01/09 11:06:17;;;;;;;18.30;10.60;;;;;;;7.18;91.76;99925.41;4976330;28;20597;-81
2022/01/09 11:08:43;;;;;;;21.10;11.93;;;;;;;7.01;91.52;99893.31;4977062;28;20174;-80
2022/01/09 11:11:19;;;;;;;18.83;12.13;;;;;;;7.04;92.31;99896.13;4978659;28;20226;-82
2022/01/09 11:13:47;;;;;;;27.10;15.85;;;;;;;7.19;90.52;99904.25;4977869;28;20237;-80